Time;durP1;ratioP1;P1;durP2;ratioP2;P2;SDS_P1;SDS_P2;PMS_P1;PMS_P2;Temp;Humidity;BMP_temperature;BMP_pressure;BME280_temperature;BME280_humidity;BME280_pressure;Samples;Min_cycle;Max_cycle;Signal;HPM_P1;HPM_P2
2021/08/06 00:01:34;;;;;;;30.98;12.05;;;;;;;11.92;100.00;96984.28;5060582;28;20488;-79
2021/08/06 00:04:01;;;;;;;26.77;12.40;;;;;;;11.89;100.00;96980.31;5040283;28;20669;-79
2021/08/06 00:06:40;;;;;;;41.10;12.98;;;;;;;11.90;100.00;96983.81;5023383;28;20053;-78
2021/08/06 00:09:09;;;;;;;24.40;12.43;;;;;;;11.87;100.00;96977.16;5037829;28;20056;-79
2021/08/06 00:11:37;;;;;;;26.75;13.18;;;;;;;11.83;100.00;96982.47;5039197;28;20048;-80
2021/08/06 00:14:04;;;;;;;37.50;14.35;;;;;;;11.83;100.00;96968.91;5055044;28;20056;-80
2021/08/06 00:16:32;;;;;;;23.83;12.27;;;;;;;11.94;100.00;96971.94;5038602;28;20053;-80
2021/08/06 00:18:59;;;;;;;27.90;12.82;;;;;;;11.99;100.00;96966.31;5056180;28;20501;-80
2021/08/06 00:21:26;;;;;;;33.58;13.10;;;;;;;12.11;100.00;96973.63;5037589;28;20049;-80
2021/08/06 00:23:53;;;;;;;41.15;13.93;;;;;;;12.11;100.00;96968.19;5037353;28;20046;-81
2021/08/06 00:26:19;;;;;;;26.40;12.90;;;;;;;12.10;100.00;96970.16;5037037;28;20053;-80
2021/08/06 00:28:46;;;;;;;26.92;13.07;;;;;;;12.18;100.00;96958.34;5054035;28;20063;-79
2021/08/06 00:31:13;;;;;;;20.75;11.63;;;;;;;12.25;100.00;96950.44;5045411;28;20067;-79
2021/08/06 00:33:40;;;;;;;30.17;12.18;;;;;;;12.32;100.00;96956.06;5045579;28;20048;-80
2021/08/06 00:36:08;;;;;;;32.00;12.60;;;;;;;12.37;100.00;96955.84;5061272;28;20061;-79
2021/08/06 00:38:34;;;;;;;26.42;11.48;;;;;;;12.34;100.00;96944.88;5027029;28;20602;-79
2021/08/06 00:41:01;;;;;;;28.05;11.88;;;;;;;12.39;100.00;96956.28;5057684;28;20052;-78
2021/08/06 00:43:30;;;;;;;24.15;11.40;;;;;;;12.38;100.00;96940.34;5022373;28;20635;-79
2021/08/06 00:46:01;;;;;;;25.38;11.38;;;;;;;12.35;100.00;96938.31;5057102;28;20353;-78
2021/08/06 00:48:28;;;;;;;25.75;10.82;;;;;;;12.37;100.00;96939.56;5022923;28;20048;-78
2021/08/06 00:50:57;;;;;;;28.27;10.95;;;;;;;12.34;100.00;96932.09;5040757;28;20051;-79
2021/08/06 00:53:24;;;;;;;25.42;10.68;;;;;;;12.32;100.00;96936.28;5055178;28;20036;-79
2021/08/06 00:55:51;;;;;;;27.65;10.73;;;;;;;12.34;100.00;96948.38;5038489;28;20041;-79
2021/08/06 00:58:17;;;;;;;32.92;12.20;;;;;;;12.30;100.00;96947.50;5049421;23;20083;-79
2021/08/06 01:00:48;;;;;;;23.65;13.15;;;;;;;12.31;100.00;96943.63;5055126;28;20056;-82
2021/08/06 01:03:44;;;;;;;36.03;13.50;;;;;;;12.35;100.00;96935.59;5037651;28;20043;-79
2021/08/06 01:06:23;;;;;;;38.00;14.15;;;;;;;12.38;100.00;96945.78;5072545;28;20387;-79
2021/08/06 01:09:03;;;;;;;31.80;15.88;;;;;;;12.41;100.00;96942.38;5071747;28;20050;-80
2021/08/06 01:11:35;;;;;;;40.22;16.65;;;;;;;12.47;100.00;96933.66;5038681;28;20082;-79
2021/08/06 01:14:06;;;;;;;46.50;17.38;;;;;;;12.48;100.00;96935.25;5073672;28;20654;-78
2021/08/06 01:16:34;;;;;;;43.88;18.73;;;;;;;12.52;100.00;96937.28;5055698;28;20045;-79
2021/08/06 01:19:25;;;;;;;48.92;19.42;;;;;;;12.55;100.00;96936.56;5074250;28;20102;-78
2021/08/06 01:22:02;;;;;;;45.72;19.13;;;;;;;12.61;100.00;96943.34;5075034;28;20074;-81
2021/08/06 01:24:33;;;;;;;37.13;18.92;;;;;;;12.64;100.00;96942.66;5072841;28;20040;-81
2021/08/06 01:27:00;;;;;;;45.33;19.45;;;;;;;12.63;100.00;96939.16;5056512;28;20044;-81
2021/08/06 01:29:27;;;;;;;41.17;19.40;;;;;;;12.70;100.00;96944.00;5074711;28;20056;-80
2021/08/06 01:31:53;;;;;;;37.75;18.02;;;;;;;12.73;100.00;96940.56;5056672;28;20044;-79
2021/08/06 01:34:20;;;;;;;35.47;17.70;;;;;;;12.76;100.00;96927.09;5054948;28;20048;-78
2021/08/06 01:36:47;;;;;;;38.30;18.10;;;;;;;12.77;100.00;96925.97;5055495;28;20075;-78
2021/08/06 01:39:14;;;;;;;37.60;19.70;;;;;;;12.74;100.00;96936.72;5032825;23;20060;-78
2021/08/06 01:42:07;;;;;;;32.17;18.38;;;;;;;12.81;100.00;96937.72;5007016;28;20599;-77
2021/08/06 01:44:43;;;;;;;38.75;18.40;;;;;;;12.80;100.00;96929.94;5009235;28;20464;-80
2021/08/06 01:47:25;;;;;;;32.22;19.60;;;;;;;12.80;100.00;96940.78;5015053;28;20476;-80
2021/08/06 01:49:59;;;;;;;37.75;18.70;;;;;;;12.83;100.00;96940.06;4994606;28;20049;-80
2021/08/06 01:52:31;;;;;;;34.33;18.48;;;;;;;12.84;100.00;96923.44;4995019;28;20424;-80
2021/08/06 01:55:02;;;;;;;36.05;18.75;;;;;;;12.86;100.00;96928.53;5011523;28;20100;-80
2021/08/06 01:57:32;;;;;;;32.55;17.80;;;;;;;12.85;100.00;96926.97;5010760;28;20195;-79
2021/08/06 02:00:01;;;;;;;39.25;17.35;;;;;;;12.78;100.00;96927.53;5010240;28;20138;-80
2021/08/06 02:02:31;;;;;;;34.88;18.38;;;;;;;12.72;100.00;96934.38;5010917;28;20182;-80
2021/08/06 02:04:58;;;;;;;37.22;19.27;;;;;;;12.70;100.00;96919.56;5030679;28;20057;-81
2021/08/06 02:07:25;;;;;;;38.78;18.27;;;;;;;12.64;100.00;96918.22;4995927;28;20076;-80
2021/08/06 02:09:52;;;;;;;36.92;18.35;;;;;;;12.60;100.00;96918.09;5012201;28;20049;-80
2021/08/06 02:12:19;;;;;;;38.42;17.60;;;;;;;12.61;100.00;96930.56;5012564;28;20037;-80
2021/08/06 02:14:48;;;;;;;40.60;17.52;;;;;;;12.56;100.00;96924.56;5011759;28;20306;-81
2021/08/06 02:17:18;;;;;;;39.00;18.25;;;;;;;12.54;100.00;96921.41;5028521;28;20048;-82
2021/08/06 02:19:45;;;;;;;39.25;18.55;;;;;;;12.56;100.00;96919.94;5010619;28;20132;-80
2021/08/06 02:22:12;;;;;;;40.00;19.23;;;;;;;12.52;100.00;96929.91;5028287;28;20111;-80
2021/08/06 02:24:42;;;;;;;40.72;19.42;;;;;;;12.44;100.00;96912.59;5010495;28;20527;-80
2021/08/06 02:27:12;;;;;;;49.00;19.15;;;;;;;12.45;100.00;96908.78;5029493;28;20119;-79
2021/08/06 02:29:40;;;;;;;40.00;18.15;;;;;;;12.41;100.00;96912.53;4996053;28;20045;-81
2021/08/06 02:32:09;;;;;;;33.20;17.73;;;;;;;12.37;100.00;96909.69;5012015;28;20048;-81
2021/08/06 02:34:38;;;;;;;40.63;18.00;;;;;;;12.30;100.00;96895.13;5012057;28;20042;-80
2021/08/06 02:37:05;;;;;;;36.67;17.92;;;;;;;12.33;100.00;96913.44;5028643;28;20052;-81
2021/08/06 02:39:32;;;;;;;34.60;18.70;;;;;;;12.31;100.00;96905.63;5027841;28;20052;-81
2021/08/06 02:42:01;;;;;;;35.65;19.75;;;;;;;12.30;100.00;96898.66;5028779;28;20046;-80
2021/08/06 02:44:27;;;;;;;30.77;17.15;;;;;;;12.26;100.00;96896.97;5028170;28;20045;-81
2021/08/06 02:46:54;;;;;;;39.72;18.65;;;;;;;12.24;100.00;96904.63;5044308;28;20524;-79
2021/08/06 02:49:21;;;;;;;34.25;18.08;;;;;;;12.20;100.00;96901.84;5027420;28;20052;-79
2021/08/06 02:51:48;;;;;;;34.30;17.65;;;;;;;12.15;100.00;96899.38;5010371;28;20045;-80
2021/08/06 02:54:15;;;;;;;36.97;18.83;;;;;;;12.15;100.00;96907.50;5029300;28;20041;-79
2021/08/06 02:56:41;;;;;;;42.92;19.65;;;;;;;12.14;100.00;96895.06;5010660;28;20045;-79
2021/08/06 02:59:08;;;;;;;46.88;19.67;;;;;;;12.08;100.00;96895.66;5025306;28;20052;-79
2021/08/06 03:01:34;;;;;;;33.33;17.17;;;;;;;12.03;100.00;96893.16;5028802;28;20045;-79
2021/08/06 03:04:01;;;;;;;33.30;18.33;;;;;;;12.02;100.00;96883.44;5030336;28;20052;-78
2021/08/06 03:06:28;;;;;;;33.33;17.73;;;;;;;11.97;100.00;96880.97;5048019;28;20045;-79
2021/08/06 03:08:57;;;;;;;34.70;18.13;;;;;;;11.99;100.00;96881.41;5030828;28;20045;-80
2021/08/06 03:11:23;;;;;;;32.42;16.60;;;;;;;12.00;100.00;96881.06;5030155;28;20060;-79
2021/08/06 03:13:50;;;;;;;31.92;16.55;;;;;;;11.93;100.00;96878.13;5029852;28;20352;-80
2021/08/06 03:16:17;;;;;;;27.75;15.50;;;;;;;11.89;100.00;96877.25;5032991;28;20050;-80
2021/08/06 03:18:43;;;;;;;34.47;15.80;;;;;;;11.86;100.00;96884.16;5034850;28;20049;-80
2021/08/06 03:21:14;;;;;;;41.67;17.60;;;;;;;11.78;100.00;96879.63;5026539;28;20782;-79
2021/08/06 03:23:40;;;;;;;28.77;14.88;;;;;;;11.73;100.00;96873.66;5026150;28;20606;-80
2021/08/06 03:26:07;;;;;;;43.45;16.27;;;;;;;11.69;100.00;96870.06;5041580;28;20053;-80
2021/08/06 03:28:34;;;;;;;37.10;15.60;;;;;;;11.68;100.00;96880.09;5048942;28;20416;-78
2021/08/06 03:31:00;;;;;;;34.33;15.98;;;;;;;11.66;100.00;96889.69;5028863;28;20504;-80
2021/08/06 03:33:27;;;;;;;33.22;14.32;;;;;;;11.61;100.00;96881.78;5025989;28;20052;-81
2021/08/06 03:35:54;;;;;;;46.95;13.25;;;;;;;11.50;100.00;96889.56;5022993;28;20060;-78
2021/08/06 03:38:23;;;;;;;32.70;13.13;;;;;;;11.40;100.00;96881.09;5026203;28;20053;-80
2021/08/06 03:40:53;;;;;;;29.58;13.60;;;;;;;11.40;100.00;96878.38;5029220;28;20492;-79
2021/08/06 03:43:19;;;;;;;33.72;15.02;;;;;;;11.42;100.00;96878.81;5045484;28;20072;-80
2021/08/06 03:45:46;;;;;;;37.45;14.95;;;;;;;11.32;100.00;96874.66;5029557;28;20131;-80
2021/08/06 03:48:12;;;;;;;34.67;14.80;;;;;;;11.34;100.00;96866.97;5033425;28;20061;-80
2021/08/06 03:50:40;;;;;;;25.58;12.05;;;;;;;11.28;100.00;96860.19;5031316;28;20503;-80
2021/08/06 03:53:07;;;;;;;32.05;14.93;;;;;;;11.15;100.00;96875.63;5029794;28;20125;-78
2021/08/06 03:55:33;;;;;;;26.63;12.60;;;;;;;11.19;100.00;96868.44;5029347;28;20092;-79
2021/08/06 03:58:01;;;;;;;35.35;13.73;;;;;;;11.23;100.00;96865.81;5029828;28;20057;-79
2021/08/06 04:00:31;;;;;;;36.03;13.85;;;;;;;11.26;100.00;96871.38;5029898;28;20084;-79
2021/08/06 04:02:58;;;;;;;25.70;12.55;;;;;;;11.24;100.00;96876.34;5030655;28;20069;-80
2021/08/06 04:05:26;;;;;;;28.30;12.90;;;;;;;11.28;100.00;96882.66;5030856;28;20153;-80
2021/08/06 04:07:53;;;;;;;29.67;14.13;;;;;;;11.30;100.00;96882.31;5046167;28;20122;-82
2021/08/06 04:10:22;;;;;;;24.13;13.02;;;;;;;11.33;100.00;96870.03;5027949;28;20051;-82
2021/08/06 04:12:51;;;;;;;28.23;14.90;;;;;;;11.31;100.00;96870.34;5027961;28;20065;-80
2021/08/06 04:15:18;;;;;;;27.67;14.15;;;;;;;11.31;100.00;96869.56;5029435;28;20049;-82
2021/08/06 04:17:48;;;;;;;26.17;13.57;;;;;;;11.34;100.00;96872.38;5029523;28;20483;-79
2021/08/06 04:20:18;;;;;;;21.10;14.23;;;;;;;11.31;100.00;96877.69;5028409;28;20049;-79
2021/08/06 04:22:45;;;;;;;33.83;15.48;;;;;;;11.24;100.00;96879.03;5028134;28;20052;-81
2021/08/06 04:25:14;;;;;;;33.55;15.20;;;;;;;11.30;100.00;96882.31;5029380;28;20052;-81
2021/08/06 04:27:41;;;;;;;24.15;13.93;;;;;;;11.28;100.00;96881.84;5027796;28;20053;-80
2021/08/06 04:30:09;;;;;;;25.25;13.13;;;;;;;11.31;100.00;96881.19;5028751;28;20045;-80
2021/08/06 04:32:36;;;;;;;27.05;13.82;;;;;;;11.29;100.00;96880.75;5027848;28;20060;-80
2021/08/06 04:35:04;;;;;;;24.77;14.18;;;;;;;11.31;100.00;96873.06;5030223;28;20116;-80
2021/08/06 04:37:31;;;;;;;37.83;17.95;;;;;;;11.34;100.00;96882.44;5030093;28;20169;-79
2021/08/06 04:39:58;;;;;;;35.47;19.90;;;;;;;11.39;100.00;96880.28;5033716;28;20079;-79
2021/08/06 04:42:24;;;;;;;40.20;19.27;;;;;;;11.47;100.00;96886.72;5030250;28;20522;-80
2021/08/06 04:44:51;;;;;;;46.67;19.48;;;;;;;11.50;100.00;96878.72;5046129;28;20041;-81
2021/08/06 04:47:17;;;;;;;37.70;17.80;;;;;;;11.53;100.00;96883.47;5011823;28;20065;-80
2021/08/06 04:49:44;;;;;;;39.08;18.80;;;;;;;11.51;100.00;96879.50;5030764;28;20064;-80
2021/08/06 04:52:10;;;;;;;37.75;18.08;;;;;;;11.56;100.00;96895.56;5027897;28;20037;-79
2021/08/06 04:54:37;;;;;;;36.88;18.77;;;;;;;11.61;100.00;96893.41;5029922;28;20111;-80
2021/08/06 04:57:04;;;;;;;38.40;19.55;;;;;;;11.70;100.00;96887.88;5029970;28;20502;-80
2021/08/06 04:59:30;;;;;;;38.00;20.42;;;;;;;11.75;100.00;96890.38;5030779;28;20041;-80
2021/08/06 05:01:57;;;;;;;33.70;19.23;;;;;;;11.78;100.00;96893.19;5027518;28;20057;-79
2021/08/06 05:04:24;;;;;;;36.05;19.25;;;;;;;11.85;100.00;96895.31;5044042;28;20033;-79
2021/08/06 05:06:50;;;;;;;41.72;22.05;;;;;;;12.01;100.00;96893.50;5027434;28;20387;-80
2021/08/06 05:09:17;;;;;;;41.05;21.25;;;;;;;12.12;100.00;96896.53;5041330;28;20065;-79
2021/08/06 05:11:43;;;;;;;37.25;20.52;;;;;;;12.21;100.00;96900.69;5027397;28;20376;-79
2021/08/06 05:14:10;;;;;;;42.17;20.80;;;;;;;12.31;100.00;96896.72;5026154;28;20175;-80
2021/08/06 05:16:37;;;;;;;32.83;18.80;;;;;;;12.37;100.00;96896.13;5025362;28;20159;-79
2021/08/06 05:19:03;;;;;;;38.08;19.77;;;;;;;12.48;100.00;96897.22;5010054;28;20037;-79
2021/08/06 05:21:30;;;;;;;40.72;18.70;;;;;;;12.56;100.00;96895.50;5026956;28;20211;-78
2021/08/06 05:23:56;;;;;;;31.63;18.38;;;;;;;12.69;100.00;96901.66;5026855;28;20189;-79
2021/08/06 05:26:23;;;;;;;33.10;17.33;;;;;;;12.76;100.00;96905.38;5026293;28;20141;-78
2021/08/06 05:28:50;;;;;;;34.03;17.08;;;;;;;12.85;100.00;96897.84;5016237;28;20042;-78
2021/08/06 05:31:16;;;;;;;39.60;17.45;;;;;;;12.96;100.00;96895.41;5021656;28;20215;-78
2021/08/06 05:33:43;;;;;;;33.05;17.58;;;;;;;13.09;100.00;96896.97;5033610;28;20505;-80
2021/08/06 05:36:12;;;;;;;26.20;16.55;;;;;;;13.20;100.00;96895.31;5025630;28;20480;-78
2021/08/06 05:38:38;;;;;;;31.02;17.20;;;;;;;13.34;100.00;96900.34;5023458;28;20049;-79
2021/08/06 05:41:05;;;;;;;27.50;16.15;;;;;;;13.42;100.00;96900.13;5022648;28;20316;-79
2021/08/06 05:43:31;;;;;;;29.23;16.02;;;;;;;13.56;100.00;96905.16;5023285;28;20053;-78
2021/08/06 05:45:58;;;;;;;28.50;16.70;;;;;;;13.63;100.00;96900.66;5022950;28;20053;-77
2021/08/06 05:48:24;;;;;;;26.75;16.15;;;;;;;13.72;100.00;96897.78;5002666;28;20060;-78
2021/08/06 05:50:51;;;;;;;23.55;14.93;;;;;;;13.83;100.00;96895.31;5011078;28;20112;-77
2021/08/06 05:53:18;;;;;;;26.15;15.23;;;;;;;13.96;100.00;96896.78;5018802;28;20119;-78
2021/08/06 05:55:45;;;;;;;25.23;15.05;;;;;;;14.03;100.00;96894.22;5004733;28;20041;-79
2021/08/06 05:58:12;;;;;;;25.15;16.30;;;;;;;14.17;100.00;96899.94;5007028;28;20053;-78
2021/08/06 06:00:38;;;;;;;19.20;9.88;;;;;;;14.45;100.00;96899.81;5000255;28;20420;-79
2021/08/06 06:03:05;;;;;;;18.13;10.48;;;;;;;14.60;100.00;96901.69;5019966;28;20050;-80
2021/08/06 06:05:31;;;;;;;15.75;9.90;;;;;;;14.78;100.00;96898.19;5021232;28;20444;-77
2021/08/06 06:07:58;;;;;;;18.38;8.10;;;;;;;15.01;100.00;96902.88;5002068;28;20816;-78
2021/08/06 06:10:25;;;;;;;11.75;7.30;;;;;;;15.21;100.00;96893.50;5047701;28;20045;-77
2021/08/06 06:12:52;;;;;;;8.70;6.43;;;;;;;15.40;100.00;96896.97;5025315;28;20424;-78
2021/08/06 06:15:19;;;;;;;8.70;6.25;;;;;;;15.58;100.00;96894.56;5025116;28;20464;-79
2021/08/06 06:17:46;;;;;;;10.73;4.25;;;;;;;15.68;100.00;96885.78;5027738;28;20045;-79
2021/08/06 06:20:15;;;;;;;7.57;4.80;;;;;;;15.82;100.00;96883.25;5033420;28;20504;-78
2021/08/06 06:22:42;;;;;;;8.80;4.60;;;;;;;16.00;100.00;96878.84;5025278;28;20057;-80
2021/08/06 06:25:09;;;;;;;5.50;4.00;;;;;;;16.07;100.00;96873.50;5027297;28;20044;-77
2021/08/06 06:27:57;;;;;;;4.68;3.72;;;;;;;16.17;100.00;96872.06;5026356;28;20045;-79
2021/08/06 06:30:26;;;;;;;4.10;3.35;;;;;;;16.21;100.00;96864.69;5026566;28;20449;-78
2021/08/06 06:32:56;;;;;;;6.47;3.55;;;;;;;16.36;100.00;96863.75;5026762;28;20056;-77
2021/08/06 06:35:23;;;;;;;8.95;3.45;;;;;;;16.43;100.00;96854.84;5024945;28;20487;-78
2021/08/06 06:37:51;;;;;;;5.47;3.65;;;;;;;16.53;100.00;96855.00;5041352;28;20128;-78
2021/08/06 06:40:21;;;;;;;4.90;3.20;;;;;;;16.60;100.00;96852.34;5026879;28;20112;-78
2021/08/06 06:42:49;;;;;;;4.53;3.00;;;;;;;16.75;100.00;96848.63;5025551;28;20041;-78
2021/08/06 06:45:16;;;;;;;6.25;2.92;;;;;;;16.75;100.00;96853.28;5026499;28;20109;-78
2021/08/06 06:47:47;;;;;;;7.25;3.28;;;;;;;16.75;100.00;96856.03;5025606;28;20045;-79
2021/08/06 06:50:18;;;;;;;4.03;3.10;;;;;;;16.92;100.00;96849.97;5024471;28;20421;-78
2021/08/06 06:52:46;;;;;;;8.40;3.42;;;;;;;16.91;100.00;96853.88;5025869;28;20111;-77
2021/08/06 06:55:12;;;;;;;7.30;3.08;;;;;;;17.02;100.00;96851.25;5026222;28;20555;-77
2021/08/06 06:57:42;;;;;;;6.25;3.00;;;;;;;17.02;100.00;96848.50;5043500;23;20543;-81
2021/08/06 07:00:13;;;;;;;4.05;3.20;;;;;;;17.11;100.00;96854.47;5044349;28;20091;-79
2021/08/06 07:02:40;;;;;;;4.18;3.03;;;;;;;17.17;100.00;96856.47;5038110;28;20122;-80
2021/08/06 07:05:08;;;;;;;3.83;2.78;;;;;;;17.26;100.00;96861.66;5037851;28;20041;-80
2021/08/06 07:07:35;;;;;;;4.47;3.08;;;;;;;17.44;100.00;96855.19;5014654;28;20054;-79
2021/08/06 07:10:04;;;;;;;4.70;3.20;;;;;;;17.48;100.00;96846.97;5036119;28;20103;-80
2021/08/06 07:12:31;;;;;;;5.22;3.38;;;;;;;17.58;100.00;96851.78;5038533;28;20049;-80
2021/08/06 07:15:00;;;;;;;4.72;3.20;;;;;;;17.58;100.00;96846.31;5023913;28;20060;-81
2021/08/06 07:17:27;;;;;;;5.32;3.33;;;;;;;17.65;100.00;96856.53;5009546;28;20049;-80
2021/08/06 07:19:54;;;;;;;5.30;3.05;;;;;;;17.68;100.00;96840.13;5025413;28;20049;-81
2021/08/06 07:22:20;;;;;;;6.93;2.80;;;;;;;17.86;100.00;96848.50;5022723;28;20121;-82
2021/08/06 07:24:47;;;;;;;6.15;3.28;;;;;;;17.90;100.00;96846.56;5020876;28;20042;-79
2021/08/06 07:27:13;;;;;;;11.98;3.30;;;;;;;18.01;100.00;96858.38;5022962;28;20053;-80
2021/08/06 07:29:40;;;;;;;5.03;3.30;;;;;;;18.00;100.00;96848.56;5041758;28;20041;-80
2021/08/06 07:57:05;;;;;;;5.65;4.45;;;;;;;18.69;100.00;96860.28;5040539;28;20513;-78
2021/08/06 07:59:32;;;;;;;3.97;2.95;;;;;;;18.90;100.00;96862.31;5040601;28;20464;-78
2021/08/06 08:01:59;;;;;;;4.97;3.30;;;;;;;18.92;100.00;96862.72;5047640;28;20052;-79
2021/08/06 08:04:26;;;;;;;5.72;3.17;;;;;;;18.95;100.00;96859.19;5071477;28;20077;-79
2021/08/06 08:06:52;;;;;;;5.32;2.88;;;;;;;18.86;100.00;96864.28;5064969;28;20057;-79
2021/08/06 08:09:19;;;;;;;4.68;3.15;;;;;;;18.78;100.00;96865.41;5032227;28;20072;-79
2021/08/06 08:11:46;;;;;;;5.22;3.13;;;;;;;19.33;100.00;96855.72;5030531;28;20144;-78
2021/08/06 08:14:12;;;;;;;4.53;2.83;;;;;;;19.86;100.00;96858.53;5030807;28;20038;-78
2021/08/06 08:16:42;;;;;;;7.00;3.28;;;;;;;20.13;100.00;96850.66;5014531;28;20091;-78
2021/08/06 08:19:08;;;;;;;3.80;3.10;;;;;;;20.19;100.00;96854.53;5031334;28;20144;-81
2021/08/06 08:21:37;;;;;;;5.88;3.13;;;;;;;20.24;100.00;96843.16;5031770;28;20045;-79
2021/08/06 08:24:07;;;;;;;4.30;3.00;;;;;;;20.21;100.00;96852.19;5030011;28;20052;-81
2021/08/06 08:26:38;;;;;;;6.60;3.00;;;;;;;20.04;100.00;96848.31;5047456;28;20114;-78
2021/08/06 08:29:05;;;;;;;3.53;2.85;;;;;;;20.02;100.00;96850.66;5032421;28;20498;-80
2021/08/06 08:31:32;;;;;;;3.55;2.75;;;;;;;20.00;100.00;96857.75;5030301;28;20046;-78
2021/08/06 08:33:58;;;;;;;6.07;3.17;;;;;;;20.05;100.00;96854.59;5014333;28;20037;-79
2021/08/06 08:36:27;;;;;;;6.47;3.33;;;;;;;20.12;100.00;96860.84;5034683;28;20050;-78
2021/08/06 08:38:55;;;;;;;6.47;2.85;;;;;;;20.28;100.00;96846.72;5041654;28;20042;-81
2021/08/06 08:41:22;;;;;;;4.00;2.83;;;;;;;20.46;100.00;96847.44;5041085;28;20037;-79
2021/08/06 08:43:49;;;;;;;8.27;3.00;;;;;;;20.29;100.00;96856.50;5026042;28;20064;-80
2021/08/06 08:46:19;;;;;;;4.72;2.90;;;;;;;20.46;100.00;96844.69;5017353;28;20045;-81
2021/08/06 08:48:49;;;;;;;3.67;2.88;;;;;;;20.27;100.00;96842.38;5031882;28;20056;-81
2021/08/06 08:51:16;;;;;;;4.20;3.10;;;;;;;20.10;100.00;96837.69;5031218;28;20048;-78
2021/08/06 08:53:42;;;;;;;5.20;2.75;;;;;;;20.23;100.00;96841.59;5029697;28;20561;-78
2021/08/06 08:56:09;;;;;;;4.95;3.00;;;;;;;20.44;100.00;96839.56;5029497;28;20145;-79
2021/08/06 08:58:39;;;;;;;6.82;2.90;;;;;;;20.35;100.00;96843.94;5047281;28;20048;-80
2021/08/06 09:01:06;;;;;;;4.88;3.33;;;;;;;20.46;100.00;96836.44;5029546;28;20103;-82
2021/08/06 09:03:35;;;;;;;6.25;3.10;;;;;;;20.67;100.00;96827.31;5030247;28;20077;-83
2021/08/06 09:06:07;;;;;;;5.78;2.65;;;;;;;20.88;100.00;96825.22;5030151;28;20510;-82
2021/08/06 09:08:35;;;;;;;3.28;2.40;;;;;;;21.13;100.00;96827.09;5029301;28;20059;-79
2021/08/06 09:11:02;;;;;;;5.60;2.47;;;;;;;21.45;100.00;96820.16;5043838;23;20115;-79
2021/08/06 09:13:29;;;;;;;7.40;2.63;;;;;;;21.71;100.00;96829.78;5031406;28;20063;-80
2021/08/06 09:15:59;;;;;;;4.13;2.40;;;;;;;21.48;100.00;96821.31;5048009;28;20570;-80
2021/08/06 09:18:44;;;;;;;3.30;2.65;;;;;;;21.76;100.00;96823.06;5019519;28;20052;-79
2021/08/06 09:31:21;;;;;;;;;;;;;;;22.02;100.00;96825.97;5030681;28;20069;-79
2021/08/06 09:34:20;;;;;;;3.65;2.33;;;;;;;21.73;100.00;96824.69;5035990;28;20307;-79
2021/08/06 09:37:23;;;;;;;2.35;1.80;;;;;;;21.57;100.00;96830.72;5041521;28;20557;-80
2021/08/06 09:40:20;;;;;;;2.45;1.95;;;;;;;21.79;100.00;96825.78;5043982;28;20100;-77
2021/08/06 09:42:56;;;;;;;3.55;2.05;;;;;;;22.95;100.00;96835.56;5085061;23;20056;-82
2021/08/06 09:45:41;;;;;;;1.88;1.60;;;;;;;23.66;100.00;96823.47;5057589;28;20041;-82
2021/08/06 09:48:08;;;;;;;3.55;1.63;;;;;;;23.81;100.00;96815.72;5074981;28;20052;-83
2021/08/06 09:50:39;;;;;;;2.35;1.70;;;;;;;23.85;100.00;96816.41;5075752;28;20036;-81
2021/08/06 09:53:06;;;;;;;2.55;1.70;;;;;;;24.47;100.00;96829.53;5069874;28;20044;-81
2021/08/06 09:55:38;;;;;;;3.13;1.83;;;;;;;24.41;100.00;96828.47;5059806;23;20057;-81
2021/08/06 09:58:10;;;;;;;1.88;1.40;;;;;;;24.09;100.00;96818.00;5030207;28;20053;-81
2021/08/06 10:00:42;;;;;;;1.83;1.60;;;;;;;23.72;100.00;96830.06;5034572;28;20056;-82
2021/08/06 10:03:28;;;;;;;2.40;1.63;;;;;;;23.18;100.00;96823.78;5030070;28;20502;-80
2021/08/06 10:06:08;;;;;;;2.83;1.52;;;;;;;22.99;100.00;96818.94;5066431;28;20226;-81
2021/08/06 10:08:36;;;;;;;2.35;1.73;;;;;;;23.34;100.00;96823.16;5032645;28;20051;-80
2021/08/06 10:11:03;;;;;;;3.80;1.50;;;;;;;23.50;100.00;96810.31;5025030;28;20054;-82
2021/08/06 10:13:30;;;;;;;5.57;1.67;;;;;;;22.41;100.00;96816.50;4996059;28;20145;-81
2021/08/06 10:15:57;;;;;;;4.53;1.88;;;;;;;22.33;100.00;96826.84;5013570;28;20131;-80
2021/08/06 10:18:24;;;;;;;2.33;1.77;;;;;;;21.92;100.00;96810.34;5005349;28;20050;-79
2021/08/06 10:20:54;;;;;;;3.17;1.80;;;;;;;21.86;100.00;96817.47;5013729;28;20081;-79
2021/08/06 10:23:26;;;;;;;2.00;1.55;;;;;;;22.16;100.00;96814.03;4996200;28;20133;-79
2021/08/06 10:25:53;;;;;;;3.83;1.73;;;;;;;22.29;100.00;96815.84;5030152;28;20742;-79
2021/08/06 10:28:23;;;;;;;1.90;1.38;;;;;;;24.42;100.00;96803.13;5036293;28;20151;-79
2021/08/06 10:30:50;;;;;;;2.15;1.65;;;;;;;26.74;100.00;96795.91;5038018;28;20053;-81
2021/08/06 10:33:20;;;;;;;2.13;1.60;;;;;;;25.57;100.00;96797.47;5034403;28;20097;-80
2021/08/06 10:35:51;;;;;;;2.10;1.48;;;;;;;26.03;100.00;96797.06;5021223;28;20044;-79
2021/08/06 10:38:44;;;;;;;4.15;1.63;;;;;;;26.20;100.00;96790.28;5018859;28;20117;-81
2021/08/06 10:41:20;;;;;;;2.20;1.50;;;;;;;25.30;100.00;96795.69;5013535;28;20466;-80
2021/08/06 10:43:49;;;;;;;2.03;1.48;;;;;;;26.46;100.00;96788.38;4997923;28;20050;-80
2021/08/06 10:46:18;;;;;;;3.17;1.20;;;;;;;26.63;100.00;96787.13;4994734;28;20054;-81
2021/08/06 10:48:54;;;;;;;1.65;1.10;;;;;;;27.03;100.00;96793.06;5008932;28;20095;-81
2021/08/06 10:51:30;;;;;;;1.48;1.10;;;;;;;28.22;100.00;96779.25;5021017;28;20052;-81
2021/08/06 10:53:57;;;;;;;4.15;1.10;;;;;;;28.30;88.54;96773.00;4998182;28;20050;-78
2021/08/06 10:56:25;;;;;;;3.55;1.30;;;;;;;27.42;100.00;96778.00;5015147;28;20133;-79
2021/08/06 10:58:55;;;;;;;1.67;1.23;;;;;;;28.93;91.37;96771.88;5033347;28;20164;-79
2021/08/06 11:01:32;;;;;;;;;;;;;;;;;;;;;
2021/08/06 11:04:00;;;;;;;4.60;1.27;;;;;;;27.41;100.00;96768.13;5023935;28;20583;-79
2021/08/06 11:06:51;;;;;;;2.10;1.20;;;;;;;28.18;91.06;96765.50;5009500;28;20046;-79
2021/08/06 11:09:27;;;;;;;4.35;1.10;;;;;;;30.16;83.61;100587.41;4997306;28;20092;-82
2021/08/06 11:11:59;;;;;;;1.50;1.10;;;;;;;30.17;66.85;96750.88;5029543;28;20076;-80
2021/08/06 11:14:34;;;;;;;5.78;1.10;;;;;;;31.10;63.71;96753.84;5015919;28;20053;-81
2021/08/06 11:17:01;;;;;;;;;;;;;;;31.82;48.09;96747.84;5028019;28;20038;-80
2021/08/06 11:19:38;;;;;;;3.50;1.40;;;;;;;31.39;52.59;96745.59;5018124;28;19944;-81
2021/08/06 11:22:47;;;;;;;2.75;1.27;;;;;;;32.40;53.56;96747.28;5016797;28;20044;-82
2021/08/06 11:25:23;;;;;;;2.67;1.05;;;;;;;32.32;48.64;96742.53;5014447;28;20077;-80
2021/08/06 11:27:56;;;;;;;1.85;1.30;;;;;;;30.62;52.04;96747.25;5015154;28;20072;-79
2021/08/06 11:30:34;;;;;;;1.38;1.10;;;;;;;27.71;88.57;96746.03;5013495;28;20506;-81
2021/08/06 11:33:04;;;;;;;3.30;1.15;;;;;;;25.99;100.00;96741.69;5018416;28;20366;-78
2021/08/06 11:35:43;;;;;;;3.40;1.10;;;;;;;24.26;100.00;96744.94;5001604;28;20049;-81
2021/08/06 11:38:12;;;;;;;1.92;1.40;;;;;;;23.64;100.00;96762.28;5028086;28;20057;-81
2021/08/06 11:40:44;;;;;;;2.50;1.40;;;;;;;22.92;100.00;96759.09;5025419;28;20050;-79
2021/08/06 11:43:16;;;;;;;2.15;1.40;;;;;;;22.41;100.00;96758.56;5013122;28;20054;-79
2021/08/06 11:45:44;;;;;;;5.00;1.45;;;;;;;22.12;100.00;96760.88;5013178;28;20045;-79
2021/08/06 11:48:14;;;;;;;12.98;2.35;;;;;;;20.98;100.00;96766.59;5014129;28;20084;-80
2021/08/06 11:50:42;;;;;;;6.20;3.03;;;;;;;19.60;100.00;96785.59;5016204;28;20129;-81
2021/08/06 11:53:23;;;;;;;26.30;4.50;;;;;;;18.73;100.00;96792.56;5016180;28;20450;-80
2021/08/06 11:55:55;;;;;;;13.18;5.00;;;;;;;18.20;100.00;96797.81;5015046;28;20042;-80
2021/08/06 11:58:38;;;;;;;6.00;4.53;;;;;;;18.03;100.00;96796.56;5031968;28;20129;-79
2021/08/06 12:01:07;;;;;;;7.80;4.70;;;;;;;18.20;100.00;96808.75;5008409;28;20052;-78
2021/08/06 12:03:47;;;;;;;6.00;4.70;;;;;;;18.55;100.00;96799.94;4996716;28;20511;-80
2021/08/06 12:06:15;;;;;;;10.85;4.60;;;;;;;19.02;100.00;96796.91;5015582;28;20073;-79